Portada
METAR-TAF:

METAR-TAF

Aeroports :

Wakkanai, Japó

latitud: 45-24N, longitud: 141-48E, altitud: 8 m

Observació

L'informe es va fer fa 3 hores i 50 minuts, a les 09:00 UTC
Vent 22 kt del Est
Temperatura 15°C
Humitat 100%
Pressió 997 hPa
Visibilitat 10 km o més
Escasses núvols a una alçada de 300 ft
Cel ennuvolat a una alçada de 700 ft
Cel ennuvolat a una alçada de 900 ft
xàfecs de pluja, boirina

METAR: RJCW 170900Z 09022KT 9999 -SHRA BR FEW003 BKN007 BKN009 15/15 Q0997

Hora: 21:50 (12:50 UTC)


TAF: manca

Observacions i pronòstics meteorològics de més de 4000 aeroports (METAR i TAF).

Les estacions disponibles són els punts grocs i vermells al mapa.

Posi el ratolí al punt desitjat per veure el nom de l'estació.

Feu clic per veure les observacions i els pronòstics meteorològics.

Per canviar el mapa: feu clic els botons verds amb una creu de color negre per apropar; al botó verd amb un guió per allunyar la imatge; o en les fletxes verdes per a mapes adjacents.


METAR-TAF: